sensor_id;sensor_type;location;lat;lon;timestamp;temperature;humidity
14934;DHT22;7560;51.364;12.384;2022-09-30T00:00:28;7.90;99.90
14934;DHT22;7560;51.364;12.384;2022-09-30T00:05:29;7.80;99.90
14934;DHT22;7560;51.364;12.384;2022-09-30T00:10:31;7.80;99.90
14934;DHT22;7560;51.364;12.384;2022-09-30T00:15:33;7.80;99.90
14934;DHT22;7560;51.364;12.384;2022-09-30T00:20:36;7.80;99.90
14934;DHT22;7560;51.364;12.384;2022-09-30T00:25:37;7.70;99.90
14934;DHT22;7560;51.364;12.384;2022-09-30T00:30:39;7.70;99.90
14934;DHT22;7560;51.364;12.384;2022-09-30T00:35:41;7.60;99.90
14934;DHT22;7560;51.364;12.384;2022-09-30T00:40:43;7.60;99.90
14934;DHT22;7560;51.364;12.384;2022-09-30T00:45:56;7.50;99.90
14934;DHT22;7560;51.364;12.384;2022-09-30T00:51:00;7.50;99.90
14934;DHT22;7560;51.364;12.384;2022-09-30T00:56:20;7.40;99.90
14934;DHT22;7560;51.364;12.384;2022-09-30T01:01:23;7.40;99.90
14934;DHT22;7560;51.364;12.384;2022-09-30T01:06:25;7.30;99.90
14934;DHT22;7560;51.364;12.384;2022-09-30T01:11:27;7.30;99.90
14934;DHT22;7560;51.364;12.384;2022-09-30T01:37:41;7.20;99.90
14934;DHT22;7560;51.364;12.384;2022-09-30T01:42:51;7.20;99.90
14934;DHT22;7560;51.364;12.384;2022-09-30T01:53:34;7.10;99.90
14934;DHT22;7560;51.364;12.384;2022-09-30T01:58:56;7.10;99.90
14934;DHT22;7560;51.364;12.384;2022-09-30T02:04:04;7.10;99.90
14934;DHT22;7560;51.364;12.384;2022-09-30T02:09:14;7.00;99.90
14934;DHT22;7560;51.364;12.384;2022-09-30T02:19:43;7.00;99.90
14934;DHT22;7560;51.364;12.384;2022-09-30T02:24:48;7.00;99.90
14934;DHT22;7560;51.364;12.384;2022-09-30T02:29:54;6.90;99.90
14934;DHT22;7560;51.364;12.384;2022-09-30T02:35:02;6.90;99.90
14934;DHT22;7560;51.364;12.384;2022-09-30T02:40:34;6.90;99.90
14934;DHT22;7560;51.364;12.384;2022-09-30T02:46:15;7.00;99.90
14934;DHT22;7560;51.364;12.384;2022-09-30T03:02:20;7.10;99.90
14934;DHT22;7560;51.364;12.384;2022-09-30T03:07:22;7.20;99.90
14934;DHT22;7560;51.364;12.384;2022-09-30T03:12:37;7.20;99.90
14934;DHT22;7560;51.364;12.384;2022-09-30T03:18:02;7.10;99.90
14934;DHT22;7560;51.364;12.384;2022-09-30T03:23:15;7.10;99.90
14934;DHT22;7560;51.364;12.384;2022-09-30T03:28:31;7.00;99.90
14934;DHT22;7560;51.364;12.384;2022-09-30T03:33:58;6.90;99.90
14934;DHT22;7560;51.364;12.384;2022-09-30T03:39:16;6.90;99.90
14934;DHT22;7560;51.364;12.384;2022-09-30T03:44:27;6.80;99.90
14934;DHT22;7560;51.364;12.384;2022-09-30T03:49:53;6.80;99.90
14934;DHT22;7560;51.364;12.384;2022-09-30T03:55:02;6.80;99.90
14934;DHT22;7560;51.364;12.384;2022-09-30T04:00:05;6.80;99.90
14934;DHT22;7560;51.364;12.384;2022-09-30T04:05:07;6.80;99.90
14934;DHT22;7560;51.364;12.384;2022-09-30T04:10:10;6.80;99.90
14934;DHT22;7560;51.364;12.384;2022-09-30T04:15:12;6.80;99.90
14934;DHT22;7560;51.364;12.384;2022-09-30T04:20:14;6.70;99.90
14934;DHT22;7560;51.364;12.384;2022-09-30T04:25:15;6.70;99.90
14934;DHT22;7560;51.364;12.384;2022-09-30T04:30:17;6.70;99.90
14934;DHT22;7560;51.364;12.384;2022-09-30T04:35:25;6.70;99.90
14934;DHT22;7560;51.364;12.384;2022-09-30T04:40:30;6.70;99.90
14934;DHT22;7560;51.364;12.384;2022-09-30T04:45:31;6.60;99.90
14934;DHT22;7560;51.364;12.384;2022-09-30T04:50:33;6.60;99.90
14934;DHT22;7560;51.364;12.384;2022-09-30T04:55:35;6.60;99.90
14934;DHT22;7560;51.364;12.384;2022-09-30T05:00:37;6.60;99.90
14934;DHT22;7560;51.364;12.384;2022-09-30T05:05:43;6.60;99.90
14934;DHT22;7560;51.364;12.384;2022-09-30T05:10:52;6.60;99.90
14934;DHT22;7560;51.364;12.384;2022-09-30T05:15:55;6.60;99.90
14934;DHT22;7560;51.364;12.384;2022-09-30T05:20:57;6.60;99.90
14934;DHT22;7560;51.364;12.384;2022-09-30T05:26:00;6.60;99.90
14934;DHT22;7560;51.364;12.384;2022-09-30T05:31:03;6.50;99.90
14934;DHT22;7560;51.364;12.384;2022-09-30T05:36:08;6.50;99.90
14934;DHT22;7560;51.364;12.384;2022-09-30T05:41:12;6.50;99.90
14934;DHT22;7560;51.364;12.384;2022-09-30T05:46:18;6.60;99.90
14934;DHT22;7560;51.364;12.384;2022-09-30T05:51:20;6.60;99.90
14934;DHT22;7560;51.364;12.384;2022-09-30T05:56:22;6.60;99.90
14934;DHT22;7560;51.364;12.384;2022-09-30T06:01:24;6.80;99.90
14934;DHT22;7560;51.364;12.384;2022-09-30T06:06:25;6.80;99.90
14934;DHT22;7560;51.364;12.384;2022-09-30T06:11:27;6.90;99.90
14934;DHT22;7560;51.364;12.384;2022-09-30T06:16:29;7.00;99.90
14934;DHT22;7560;51.364;12.384;2022-09-30T06:21:32;7.00;99.90
14934;DHT22;7560;51.364;12.384;2022-09-30T06:26:34;7.10;99.90
14934;DHT22;7560;51.364;12.384;2022-09-30T06:31:36;7.20;99.90
14934;DHT22;7560;51.364;12.384;2022-09-30T06:36:37;7.30;99.90
14934;DHT22;7560;51.364;12.384;2022-09-30T06:41:39;7.40;99.90
14934;DHT22;7560;51.364;12.384;2022-09-30T06:46:44;7.40;99.90
14934;DHT22;7560;51.364;12.384;2022-09-30T06:51:54;7.50;99.90
14934;DHT22;7560;51.364;12.384;2022-09-30T06:56:56;7.60;99.90
14934;DHT22;7560;51.364;12.384;2022-09-30T07:01:58;7.80;99.90
14934;DHT22;7560;51.364;12.384;2022-09-30T07:06:59;7.80;99.90
14934;DHT22;7560;51.364;12.384;2022-09-30T07:12:01;8.10;99.90
14934;DHT22;7560;51.364;12.384;2022-09-30T07:17:04;8.20;99.90
14934;DHT22;7560;51.364;12.384;2022-09-30T07:22:06;8.40;99.90
14934;DHT22;7560;51.364;12.384;2022-09-30T07:27:27;8.60;99.90
14934;DHT22;7560;51.364;12.384;2022-09-30T07:32:29;8.80;99.90
14934;DHT22;7560;51.364;12.384;2022-09-30T07:37:31;8.80;99.90
14934;DHT22;7560;51.364;12.384;2022-09-30T07:42:38;8.90;99.90
14934;DHT22;7560;51.364;12.384;2022-09-30T07:47:45;9.10;99.90
14934;DHT22;7560;51.364;12.384;2022-09-30T07:52:54;9.20;99.90
14934;DHT22;7560;51.364;12.384;2022-09-30T07:57:56;9.30;99.90
14934;DHT22;7560;51.364;12.384;2022-09-30T08:02:58;9.40;99.90
14934;DHT22;7560;51.364;12.384;2022-09-30T08:08:00;9.60;99.90
14934;DHT22;7560;51.364;12.384;2022-09-30T08:13:02;9.70;99.90
14934;DHT22;7560;51.364;12.384;2022-09-30T08:18:06;9.80;99.90
14934;DHT22;7560;51.364;12.384;2022-09-30T08:23:08;9.90;99.90
14934;DHT22;7560;51.364;12.384;2022-09-30T08:28:11;9.90;99.90
14934;DHT22;7560;51.364;12.384;2022-09-30T08:33:12;10.20;99.90
14934;DHT22;7560;51.364;12.384;2022-09-30T08:38:14;10.60;99.90
14934;DHT22;7560;51.364;12.384;2022-09-30T08:43:32;11.10;99.90
14934;DHT22;7560;51.364;12.384;2022-09-30T08:53:41;11.50;99.90
14934;DHT22;7560;51.364;12.384;2022-09-30T08:58:44;11.70;99.90
14934;DHT22;7560;51.364;12.384;2022-09-30T09:03:47;12.00;99.90
14934;DHT22;7560;51.364;12.384;2022-09-30T09:14:19;11.90;99.90
14934;DHT22;7560;51.364;12.384;2022-09-30T09:19:35;11.80;99.90
14934;DHT22;7560;51.364;12.384;2022-09-30T09:24:44;11.80;99.90
14934;DHT22;7560;51.364;12.384;2022-09-30T09:30:20;11.90;99.90
14934;DHT22;7560;51.364;12.384;2022-09-30T09:46:45;12.20;99.90
14934;DHT22;7560;51.364;12.384;2022-09-30T09:57:07;12.40;99.90
14934;DHT22;7560;51.364;12.384;2022-09-30T10:02:29;12.40;99.90
14934;DHT22;7560;51.364;12.384;2022-09-30T10:07:33;12.60;99.90
14934;DHT22;7560;51.364;12.384;2022-09-30T10:12:34;12.70;99.90
14934;DHT22;7560;51.364;12.384;2022-09-30T10:17:36;12.80;99.90
14934;DHT22;7560;51.364;12.384;2022-09-30T10:22:39;12.80;99.90
14934;DHT22;7560;51.364;12.384;2022-09-30T10:27:51;12.80;99.90
14934;DHT22;7560;51.364;12.384;2022-09-30T10:32:53;12.90;99.90
14934;DHT22;7560;51.364;12.384;2022-09-30T10:37:57;13.00;99.90
14934;DHT22;7560;51.364;12.384;2022-09-30T10:42:59;13.00;99.90
14934;DHT22;7560;51.364;12.384;2022-09-30T10:48:05;13.20;99.90
14934;DHT22;7560;51.364;12.384;2022-09-30T10:53:16;13.30;99.90
14934;DHT22;7560;51.364;12.384;2022-09-30T11:03:31;13.40;99.90
14934;DHT22;7560;51.364;12.384;2022-09-30T11:08:40;13.50;99.90
14934;DHT22;7560;51.364;12.384;2022-09-30T11:13:54;13.70;99.90
14934;DHT22;7560;51.364;12.384;2022-09-30T11:19:12;13.70;99.90
14934;DHT22;7560;51.364;12.384;2022-09-30T11:24:40;13.80;99.90
14934;DHT22;7560;51.364;12.384;2022-09-30T11:30:02;13.90;99.90
14934;DHT22;7560;51.364;12.384;2022-09-30T11:40:34;14.10;99.90
14934;DHT22;7560;51.364;12.384;2022-09-30T11:51:17;14.00;99.90
14934;DHT22;7560;51.364;12.384;2022-09-30T11:56:30;14.10;99.90
14934;DHT22;7560;51.364;12.384;2022-09-30T12:01:44;14.10;99.90
14934;DHT22;7560;51.364;12.384;2022-09-30T12:06:57;14.30;99.90
14934;DHT22;7560;51.364;12.384;2022-09-30T12:12:07;14.40;99.90
14934;DHT22;7560;51.364;12.384;2022-09-30T12:17:21;14.50;99.90
14934;DHT22;7560;51.364;12.384;2022-09-30T12:22:36;14.50;99.90
14934;DHT22;7560;51.364;12.384;2022-09-30T12:27:45;14.70;99.90
14934;DHT22;7560;51.364;12.384;2022-09-30T12:32:54;14.60;99.90
14934;DHT22;7560;51.364;12.384;2022-09-30T12:38:31;15.00;99.90
14934;DHT22;7560;51.364;12.384;2022-09-30T12:49:08;14.90;99.90
14934;DHT22;7560;51.364;12.384;2022-09-30T12:59:28;15.20;99.90
14934;DHT22;7560;51.364;12.384;2022-09-30T13:09:36;15.70;99.90
14934;DHT22;7560;51.364;12.384;2022-09-30T13:14:41;15.90;99.90
14934;DHT22;7560;51.364;12.384;2022-09-30T13:19:48;16.30;99.90
14934;DHT22;7560;51.364;12.384;2022-09-30T13:35:33;16.20;99.90
14934;DHT22;7560;51.364;12.384;2022-09-30T13:40:35;16.80;99.90
14934;DHT22;7560;51.364;12.384;2022-09-30T13:51:24;17.00;99.90
14934;DHT22;7560;51.364;12.384;2022-09-30T13:56:35;17.30;99.90
14934;DHT22;7560;51.364;12.384;2022-09-30T14:07:06;16.70;99.90
14934;DHT22;7560;51.364;12.384;2022-09-30T14:17:42;17.10;99.90
14934;DHT22;7560;51.364;12.384;2022-09-30T14:22:46;17.10;99.90
14934;DHT22;7560;51.364;12.384;2022-09-30T14:28:11;16.80;99.90
14934;DHT22;7560;51.364;12.384;2022-09-30T14:33:23;16.90;99.90
14934;DHT22;7560;51.364;12.384;2022-09-30T14:38:27;17.20;99.90
14934;DHT22;7560;51.364;12.384;2022-09-30T14:43:31;17.80;99.90
14934;DHT22;7560;51.364;12.384;2022-09-30T14:48:43;18.00;99.90
14934;DHT22;7560;51.364;12.384;2022-09-30T14:53:55;18.10;99.90
14934;DHT22;7560;51.364;12.384;2022-09-30T14:58:58;18.30;99.90
14934;DHT22;7560;51.364;12.384;2022-09-30T15:04:16;18.50;99.90
14934;DHT22;7560;51.364;12.384;2022-09-30T15:14:22;18.70;99.90
14934;DHT22;7560;51.364;12.384;2022-09-30T15:19:26;18.30;99.90
14934;DHT22;7560;51.364;12.384;2022-09-30T15:24:29;18.90;99.90
14934;DHT22;7560;51.364;12.384;2022-09-30T15:29:33;18.80;99.90
14934;DHT22;7560;51.364;12.384;2022-09-30T15:34:34;18.40;99.90
14934;DHT22;7560;51.364;12.384;2022-09-30T15:39:41;18.00;99.90
14934;DHT22;7560;51.364;12.384;2022-09-30T15:45:28;17.70;99.90
14934;DHT22;7560;51.364;12.384;2022-09-30T15:50:47;17.40;99.90
14934;DHT22;7560;51.364;12.384;2022-09-30T15:55:51;16.90;99.90
14934;DHT22;7560;51.364;12.384;2022-09-30T16:00:54;16.70;99.90
14934;DHT22;7560;51.364;12.384;2022-09-30T16:06:12;16.50;99.90
14934;DHT22;7560;51.364;12.384;2022-09-30T16:11:25;16.20;99.90
14934;DHT22;7560;51.364;12.384;2022-09-30T16:16:31;16.00;99.90
14934;DHT22;7560;51.364;12.384;2022-09-30T16:21:43;15.80;99.90
14934;DHT22;7560;51.364;12.384;2022-09-30T16:26:46;15.50;99.90
14934;DHT22;7560;51.364;12.384;2022-09-30T16:31:49;15.30;99.90
14934;DHT22;7560;51.364;12.384;2022-09-30T16:36:53;15.00;99.90
14934;DHT22;7560;51.364;12.384;2022-09-30T16:41:56;14.80;99.90
14934;DHT22;7560;51.364;12.384;2022-09-30T16:46:57;14.50;99.90
14934;DHT22;7560;51.364;12.384;2022-09-30T16:51:59;14.40;99.90
14934;DHT22;7560;51.364;12.384;2022-09-30T16:57:01;14.20;99.90
14934;DHT22;7560;51.364;12.384;2022-09-30T17:02:03;14.00;99.90
14934;DHT22;7560;51.364;12.384;2022-09-30T17:07:10;13.80;99.90
14934;DHT22;7560;51.364;12.384;2022-09-30T17:12:11;13.60;99.90
14934;DHT22;7560;51.364;12.384;2022-09-30T17:17:13;13.40;99.90
14934;DHT22;7560;51.364;12.384;2022-09-30T17:22:15;13.30;99.90
14934;DHT22;7560;51.364;12.384;2022-09-30T17:27:16;13.20;99.90
14934;DHT22;7560;51.364;12.384;2022-09-30T17:32:18;13.10;99.90
14934;DHT22;7560;51.364;12.384;2022-09-30T17:37:20;13.00;99.90
14934;DHT22;7560;51.364;12.384;2022-09-30T17:42:22;12.90;99.90
14934;DHT22;7560;51.364;12.384;2022-09-30T17:47:42;12.80;99.90
14934;DHT22;7560;51.364;12.384;2022-09-30T17:52:44;12.60;99.90
14934;DHT22;7560;51.364;12.384;2022-09-30T17:57:46;12.50;99.90
14934;DHT22;7560;51.364;12.384;2022-09-30T18:02:47;12.40;99.90
14934;DHT22;7560;51.364;12.384;2022-09-30T18:07:49;12.20;99.90
14934;DHT22;7560;51.364;12.384;2022-09-30T18:12:52;12.10;99.90
14934;DHT22;7560;51.364;12.384;2022-09-30T18:17:55;12.00;99.90
14934;DHT22;7560;51.364;12.384;2022-09-30T18:22:57;11.90;99.90
14934;DHT22;7560;51.364;12.384;2022-09-30T18:27:58;11.90;99.90
14934;DHT22;7560;51.364;12.384;2022-09-30T18:33:00;11.80;99.90
14934;DHT22;7560;51.364;12.384;2022-09-30T18:38:04;11.60;99.90
14934;DHT22;7560;51.364;12.384;2022-09-30T18:43:08;11.50;99.90
14934;DHT22;7560;51.364;12.384;2022-09-30T18:48:13;11.40;99.90
14934;DHT22;7560;51.364;12.384;2022-09-30T18:53:20;11.40;99.90
14934;DHT22;7560;51.364;12.384;2022-09-30T18:58:22;11.30;99.90
14934;DHT22;7560;51.364;12.384;2022-09-30T19:03:28;11.20;99.90
14934;DHT22;7560;51.364;12.384;2022-09-30T19:08:29;11.10;99.90
14934;DHT22;7560;51.364;12.384;2022-09-30T19:13:31;11.10;99.90
14934;DHT22;7560;51.364;12.384;2022-09-30T19:18:33;11.00;99.90
14934;DHT22;7560;51.364;12.384;2022-09-30T19:23:35;11.00;99.90
14934;DHT22;7560;51.364;12.384;2022-09-30T19:28:37;10.90;99.90
14934;DHT22;7560;51.364;12.384;2022-09-30T19:33:39;10.80;99.90
14934;DHT22;7560;51.364;12.384;2022-09-30T19:38:53;10.70;99.90
14934;DHT22;7560;51.364;12.384;2022-09-30T19:44:12;10.60;99.90
14934;DHT22;7560;51.364;12.384;2022-09-30T19:49:19;10.50;99.90
14934;DHT22;7560;51.364;12.384;2022-09-30T19:54:22;10.40;99.90
14934;DHT22;7560;51.364;12.384;2022-09-30T19:59:38;10.40;99.90
14934;DHT22;7560;51.364;12.384;2022-09-30T20:04:40;10.30;99.90
14934;DHT22;7560;51.364;12.384;2022-09-30T20:09:42;10.30;99.90
14934;DHT22;7560;51.364;12.384;2022-09-30T20:14:44;10.20;99.90
14934;DHT22;7560;51.364;12.384;2022-09-30T20:20:04;10.20;99.90
14934;DHT22;7560;51.364;12.384;2022-09-30T20:25:25;10.10;99.90
14934;DHT22;7560;51.364;12.384;2022-09-30T20:30:27;10.00;99.90
14934;DHT22;7560;51.364;12.384;2022-09-30T20:35:33;9.90;99.90
14934;DHT22;7560;51.364;12.384;2022-09-30T20:40:35;9.90;99.90
14934;DHT22;7560;51.364;12.384;2022-09-30T20:45:37;9.80;99.90
14934;DHT22;7560;51.364;12.384;2022-09-30T20:50:41;9.70;99.90
14934;DHT22;7560;51.364;12.384;2022-09-30T20:55:45;9.70;99.90
14934;DHT22;7560;51.364;12.384;2022-09-30T21:00:47;9.60;99.90
14934;DHT22;7560;51.364;12.384;2022-09-30T21:05:52;9.60;99.90
14934;DHT22;7560;51.364;12.384;2022-09-30T21:10:53;9.50;99.90
14934;DHT22;7560;51.364;12.384;2022-09-30T21:16:00;9.50;99.90
14934;DHT22;7560;51.364;12.384;2022-09-30T21:21:03;9.40;99.90
14934;DHT22;7560;51.364;12.384;2022-09-30T21:26:08;9.30;99.90
14934;DHT22;7560;51.364;12.384;2022-09-30T21:31:19;9.30;99.90
14934;DHT22;7560;51.364;12.384;2022-09-30T21:36:22;9.30;99.90
14934;DHT22;7560;51.364;12.384;2022-09-30T21:41:24;9.20;99.90
14934;DHT22;7560;51.364;12.384;2022-09-30T21:46:26;9.20;99.90
14934;DHT22;7560;51.364;12.384;2022-09-30T21:51:27;9.10;99.90
14934;DHT22;7560;51.364;12.384;2022-09-30T21:56:35;9.10;99.90
14934;DHT22;7560;51.364;12.384;2022-09-30T22:01:38;9.00;99.90
14934;DHT22;7560;51.364;12.384;2022-09-30T22:06:39;9.00;99.90
14934;DHT22;7560;51.364;12.384;2022-09-30T22:11:41;9.00;99.90
14934;DHT22;7560;51.364;12.384;2022-09-30T22:16:44;8.90;99.90
14934;DHT22;7560;51.364;12.384;2022-09-30T22:21:46;8.90;99.90
14934;DHT22;7560;51.364;12.384;2022-09-30T22:26:48;8.90;99.90
14934;DHT22;7560;51.364;12.384;2022-09-30T22:31:49;8.90;99.90
14934;DHT22;7560;51.364;12.384;2022-09-30T22:36:51;8.80;99.90
14934;DHT22;7560;51.364;12.384;2022-09-30T22:42:12;8.80;99.90
14934;DHT22;7560;51.364;12.384;2022-09-30T22:47:13;8.70;99.90
14934;DHT22;7560;51.364;12.384;2022-09-30T22:52:15;8.70;99.90
14934;DHT22;7560;51.364;12.384;2022-09-30T22:57:17;8.70;99.90
14934;DHT22;7560;51.364;12.384;2022-09-30T23:02:18;8.60;99.90
14934;DHT22;7560;51.364;12.384;2022-09-30T23:07:22;8.60;99.90
14934;DHT22;7560;51.364;12.384;2022-09-30T23:12:24;8.60;99.90
14934;DHT22;7560;51.364;12.384;2022-09-30T23:17:25;8.60;99.90
14934;DHT22;7560;51.364;12.384;2022-09-30T23:22:27;8.50;99.90
14934;DHT22;7560;51.364;12.384;2022-09-30T23:27:29;8.50;99.90
14934;DHT22;7560;51.364;12.384;2022-09-30T23:32:30;8.50;99.90
14934;DHT22;7560;51.364;12.384;2022-09-30T23:37:32;8.50;99.90
14934;DHT22;7560;51.364;12.384;2022-09-30T23:42:34;8.50;99.90
14934;DHT22;7560;51.364;12.384;2022-09-30T23:47:35;8.50;99.90
14934;DHT22;7560;51.364;12.384;2022-09-30T23:52:37;8.40;99.90
14934;DHT22;7560;51.364;12.384;2022-09-30T23:57:39;8.50;99.90
